createdAt,value
2023-07-05T00:02:20.564Z,12.90
2023-07-05T00:04:48.083Z,13.00
2023-07-05T00:07:15.682Z,12.90
2023-07-05T00:09:43.166Z,13.00
2023-07-05T00:12:10.668Z,12.90
2023-07-05T00:14:38.103Z,12.90
2023-07-05T00:17:05.561Z,13.50
2023-07-05T00:19:32.913Z,12.90
2023-07-05T00:22:00.428Z,12.90
2023-07-05T00:24:27.822Z,12.90
2023-07-05T00:26:55.174Z,12.90
2023-07-05T00:29:22.578Z,12.90
2023-07-05T00:31:49.986Z,12.90
2023-07-05T00:34:17.408Z,12.80
2023-07-05T00:36:44.904Z,12.80
2023-07-05T00:39:12.336Z,12.80
2023-07-05T00:41:39.710Z,12.70
2023-07-05T00:44:07.422Z,12.70
2023-07-05T00:46:36.338Z,13.90
2023-07-05T00:49:16.647Z,12.80
2023-07-05T00:51:51.717Z,12.80
2023-07-05T00:54:24.602Z,12.80
2023-07-05T00:56:57.982Z,12.80
2023-07-05T00:59:29.495Z,12.80
2023-07-05T01:02:02.157Z,12.80
2023-07-05T01:04:33.902Z,12.80
2023-07-05T01:07:02.094Z,13.30
2023-07-05T01:09:30.729Z,12.80
2023-07-05T01:12:11.229Z,12.90
2023-07-05T01:14:56.610Z,12.80
2023-07-05T01:17:54.999Z,12.80
2023-07-05T01:20:30.754Z,12.80
2023-07-05T01:23:01.123Z,12.90
2023-07-05T01:25:52.242Z,12.80
2023-07-05T01:28:41.328Z,12.90
2023-07-05T01:31:30.300Z,12.80
2023-07-05T01:34:16.006Z,12.80
2023-07-05T01:36:43.634Z,12.90
2023-07-05T01:39:10.994Z,12.90
2023-07-05T01:41:38.412Z,12.90
2023-07-05T01:44:06.668Z,12.90
2023-07-05T01:47:02.584Z,12.90
2023-07-05T01:50:18.638Z,13.00
2023-07-05T01:52:59.696Z,13.00
2023-07-05T01:55:37.539Z,13.00
2023-07-05T01:58:12.334Z,13.10
2023-07-05T02:00:42.455Z,13.10
2023-07-05T02:03:13.580Z,13.10
2023-07-05T02:05:41.285Z,12.80
2023-07-05T02:08:08.877Z,13.10
2023-07-05T02:10:36.241Z,13.10
2023-07-05T02:13:10.136Z,13.10
2023-07-05T02:15:39.158Z,13.10
2023-07-05T02:18:08.245Z,13.10
2023-07-05T02:20:37.418Z,13.10
2023-07-05T02:23:05.003Z,13.10
2023-07-05T02:25:32.932Z,13.10
2023-07-05T02:28:00.383Z,13.10
2023-07-05T02:30:28.076Z,13.10
2023-07-05T02:32:56.148Z,12.90
2023-07-05T02:35:24.919Z,13.10
2023-07-05T02:37:52.272Z,13.10
2023-07-05T02:40:19.644Z,13.10
2023-07-05T02:42:46.970Z,13.00
2023-07-05T02:45:14.346Z,12.90
2023-07-05T02:47:41.833Z,12.90
2023-07-05T02:50:09.940Z,12.90
2023-07-05T02:52:37.380Z,12.90
2023-07-05T02:55:05.176Z,12.90
2023-07-05T02:57:32.552Z,12.80
2023-07-05T02:59:59.854Z,12.80
2023-07-05T03:02:27.222Z,12.80
2023-07-05T03:04:54.903Z,12.70
2023-07-05T03:07:22.444Z,12.70
2023-07-05T03:09:50.017Z,12.60
2023-07-05T03:12:18.624Z,12.60
2023-07-05T03:14:45.980Z,12.60
2023-07-05T03:17:13.375Z,12.60
2023-07-05T03:19:40.677Z,12.50
2023-07-05T03:22:08.057Z,12.50
2023-07-05T03:24:35.481Z,12.50
2023-07-05T03:27:02.869Z,12.40
2023-07-05T03:29:31.893Z,12.40
2023-07-05T03:32:00.582Z,12.40
2023-07-05T03:34:28.547Z,13.70
2023-07-05T03:36:56.284Z,12.90
2023-07-05T03:39:23.723Z,12.30
2023-07-05T03:41:51.061Z,12.20
2023-07-05T03:44:23.240Z,12.30
2023-07-05T03:46:50.804Z,12.30
2023-07-05T03:49:19.069Z,12.30
2023-07-05T03:51:46.547Z,12.30
2023-07-05T03:54:13.886Z,12.30
2023-07-05T03:56:41.284Z,12.30
2023-07-05T03:59:08.971Z,12.30
2023-07-05T04:01:36.356Z,12.30
2023-07-05T04:04:04.021Z,12.30
2023-07-05T04:06:33.817Z,12.30
2023-07-05T04:09:01.374Z,12.30
2023-07-05T04:11:29.018Z,12.30
2023-07-05T04:13:57.027Z,12.20
2023-07-05T04:16:26.937Z,12.20
2023-07-05T04:18:57.055Z,12.20
2023-07-05T04:21:26.173Z,12.50
2023-07-05T04:23:53.759Z,12.10
2023-07-05T04:26:24.730Z,12.10
2023-07-05T04:28:52.356Z,12.10
2023-07-05T04:31:29.761Z,12.00
2023-07-05T04:33:59.228Z,12.00
2023-07-05T04:36:28.620Z,12.00
2023-07-05T04:38:58.792Z,12.00
2023-07-05T04:41:26.774Z,12.10
2023-07-05T04:43:54.388Z,11.90
2023-07-05T04:46:22.582Z,10.90
2023-07-05T04:48:50.289Z,12.20
2023-07-05T04:51:17.793Z,12.20
2023-07-05T04:53:45.133Z,12.20
2023-07-05T04:56:14.538Z,12.10
2023-07-05T04:58:42.437Z,12.10
2023-07-05T05:01:11.049Z,12.10
2023-07-05T05:03:38.473Z,12.20
2023-07-05T05:06:06.067Z,12.20
2023-07-05T05:08:33.673Z,12.20
2023-07-05T05:11:03.030Z,12.20
2023-07-05T05:13:32.596Z,12.20
2023-07-05T05:16:00.820Z,12.30
2023-07-05T05:18:31.319Z,12.30
2023-07-05T05:20:59.469Z,12.30
2023-07-05T05:23:27.691Z,11.90
2023-07-05T05:25:55.169Z,12.30
2023-07-05T05:28:23.077Z,12.30
2023-07-05T05:30:50.949Z,12.40
2023-07-05T05:33:19.380Z,12.40
2023-07-05T05:35:51.159Z,12.40
2023-07-05T05:38:20.211Z,12.50
2023-07-05T05:40:51.834Z,12.50
2023-07-05T05:43:20.568Z,12.50
2023-07-05T05:45:48.035Z,12.60
2023-07-05T05:48:15.435Z,12.60
2023-07-05T05:50:42.901Z,12.60
2023-07-05T05:53:13.829Z,12.60
2023-07-05T05:55:41.679Z,12.60
2023-07-05T05:58:10.176Z,12.60
2023-07-05T06:00:39.345Z,12.60
2023-07-05T06:03:07.530Z,12.60
2023-07-05T06:05:35.894Z,12.60
2023-07-05T06:08:03.345Z,12.70
2023-07-05T06:10:32.939Z,12.70
2023-07-05T06:13:00.446Z,12.80
2023-07-05T06:15:27.727Z,12.80
2023-07-05T06:17:56.246Z,12.80
2023-07-05T06:20:24.667Z,12.80
2023-07-05T06:22:52.054Z,12.80
2023-07-05T06:25:19.392Z,12.90
2023-07-05T06:27:46.828Z,11.90
2023-07-05T06:30:14.158Z,12.90
2023-07-05T06:32:41.527Z,12.90
2023-07-05T06:35:09.091Z,13.00
2023-07-05T06:37:36.475Z,13.00
2023-07-05T06:40:04.427Z,13.00
2023-07-05T06:42:31.789Z,13.10
2023-07-05T06:44:59.193Z,13.10
2023-07-05T06:47:26.533Z,13.10
2023-07-05T06:49:53.878Z,13.20
2023-07-05T06:52:21.386Z,13.20
2023-07-05T06:54:48.724Z,13.30
2023-07-05T06:57:16.037Z,13.30
2023-07-05T06:59:46.355Z,13.30
2023-07-05T07:02:13.803Z,13.30
2023-07-05T07:04:41.429Z,13.30
2023-07-05T07:07:09.071Z,13.30
2023-07-05T07:09:36.861Z,13.30
2023-07-05T07:12:06.851Z,13.40
2023-07-05T07:14:34.559Z,13.30
2023-07-05T07:17:02.037Z,13.40
2023-07-05T07:19:29.330Z,13.70
2023-07-05T07:21:56.635Z,13.40
2023-07-05T07:24:24.143Z,13.50
2023-07-05T07:26:52.779Z,13.40
2023-07-05T07:29:20.104Z,13.60
2023-07-05T07:31:47.502Z,13.60
2023-07-05T07:34:15.502Z,13.70
2023-07-05T07:36:42.976Z,13.90
2023-07-05T07:39:10.275Z,14.00
2023-07-05T07:41:40.621Z,14.10
2023-07-05T07:44:11.138Z,14.20
2023-07-05T07:46:40.094Z,14.20
2023-07-05T07:49:09.904Z,14.30
2023-07-05T07:51:40.138Z,14.30
2023-07-05T07:54:13.035Z,14.40
2023-07-05T07:56:43.589Z,14.40
2023-07-05T07:59:11.111Z,14.50
2023-07-05T08:01:40.176Z,14.50
2023-07-05T08:04:10.698Z,14.50
2023-07-05T08:06:45.841Z,14.50
2023-07-05T08:09:16.232Z,14.50
2023-07-05T08:11:43.763Z,14.50
2023-07-05T08:14:14.642Z,14.60
2023-07-05T08:16:42.298Z,14.40
2023-07-05T08:19:09.779Z,14.60
2023-07-05T08:21:38.040Z,14.60
2023-07-05T08:24:23.997Z,14.60
2023-07-05T08:26:54.557Z,14.60
2023-07-05T08:29:22.070Z,14.70
2023-07-05T08:31:50.763Z,14.90
2023-07-05T08:34:19.394Z,14.90
2023-07-05T08:36:47.766Z,15.00
2023-07-05T08:39:15.864Z,15.10
2023-07-05T08:42:07.047Z,15.10
2023-07-05T08:45:15.893Z,15.10
2023-07-05T08:47:58.797Z,15.20
2023-07-05T08:50:37.679Z,15.10
2023-07-05T08:53:14.628Z,15.30
2023-07-05T08:55:50.756Z,15.20
2023-07-05T08:58:27.201Z,15.30
2023-07-05T09:01:16.440Z,15.40
2023-07-05T09:03:44.673Z,15.40
2023-07-05T09:06:59.696Z,15.50
2023-07-05T09:09:45.660Z,15.50
2023-07-05T09:12:38.899Z,15.60
2023-07-05T09:15:24.648Z,15.70
2023-07-05T09:18:18.320Z,15.60
2023-07-05T09:20:54.962Z,15.70
2023-07-05T09:23:30.976Z,15.70
2023-07-05T09:26:04.724Z,15.70
2023-07-05T09:28:43.017Z,15.70
2023-07-05T09:31:13.225Z,15.80
2023-07-05T09:33:47.898Z,15.50
2023-07-05T09:36:24.154Z,15.80
2023-07-05T09:38:59.223Z,15.90
2023-07-05T09:41:42.564Z,15.90
2023-07-05T09:44:10.217Z,16.00
2023-07-05T09:46:39.410Z,16.10
2023-07-05T09:49:18.252Z,16.20
2023-07-05T09:51:47.379Z,16.20
2023-07-05T09:54:31.738Z,16.30
2023-07-05T09:56:59.328Z,14.80
2023-07-05T09:59:26.966Z,16.40
2023-07-05T10:02:00.791Z,16.50
2023-07-05T10:04:29.196Z,16.50
2023-07-05T10:06:57.294Z,16.60
2023-07-05T10:09:25.938Z,16.70
2023-07-05T10:11:58.143Z,16.60
2023-07-05T10:14:34.628Z,16.60
2023-07-05T10:17:08.846Z,16.60
2023-07-05T10:19:43.545Z,16.60
2023-07-05T10:22:34.481Z,16.50
2023-07-05T10:25:06.676Z,16.60
2023-07-05T10:27:36.860Z,16.70
2023-07-05T10:30:14.882Z,16.80
2023-07-05T10:32:44.647Z,17.00
2023-07-05T10:35:29.327Z,17.00
2023-07-05T10:37:58.880Z,17.10
2023-07-05T10:40:27.385Z,17.20
2023-07-05T10:43:02.736Z,17.30
2023-07-05T10:45:36.273Z,17.30
2023-07-05T10:48:04.792Z,17.40
2023-07-05T10:50:35.467Z,17.40
2023-07-05T10:53:11.296Z,17.40
2023-07-05T10:55:51.060Z,17.30
2023-07-05T10:58:21.812Z,17.20
2023-07-05T11:01:02.755Z,17.10
2023-07-05T11:03:42.134Z,17.10
2023-07-05T11:06:10.667Z,17.00
2023-07-05T11:08:43.627Z,17.00
2023-07-05T11:11:27.390Z,17.00
2023-07-05T11:13:55.661Z,17.00
2023-07-05T11:16:26.231Z,17.10
2023-07-05T11:19:04.675Z,17.10
2023-07-05T11:21:40.619Z,17.20
2023-07-05T11:24:13.003Z,17.20
2023-07-05T11:26:46.016Z,17.10
2023-07-05T11:29:33.638Z,17.10
2023-07-05T11:32:04.496Z,17.10
2023-07-05T11:34:41.049Z,17.00
2023-07-05T11:37:14.418Z,17.00
2023-07-05T11:39:44.201Z,17.70
2023-07-05T11:42:17.514Z,17.10
2023-07-05T11:44:45.966Z,17.30
2023-07-05T11:47:25.300Z,17.40
2023-07-05T11:50:09.032Z,17.50
2023-07-05T11:52:59.783Z,17.60
2023-07-05T11:55:35.707Z,17.70
2023-07-05T11:58:13.251Z,18.00
2023-07-05T12:00:59.719Z,17.70
2023-07-05T12:03:31.438Z,17.80
2023-07-05T12:06:20.353Z,17.60
2023-07-05T12:08:57.131Z,17.60
2023-07-05T12:11:57.256Z,17.60
2023-07-05T12:14:25.153Z,17.70
2023-07-05T12:16:53.861Z,17.80
2023-07-05T12:19:26.774Z,17.90
2023-07-05T12:21:58.968Z,17.90
2023-07-05T12:24:26.595Z,17.90
2023-07-05T12:26:58.296Z,17.60
2023-07-05T12:29:30.988Z,17.50
2023-07-05T12:32:16.629Z,17.40
2023-07-05T12:34:44.418Z,17.30
2023-07-05T12:37:11.782Z,17.30
2023-07-05T12:39:43.434Z,17.30
2023-07-05T12:42:13.569Z,17.30
2023-07-05T12:44:41.570Z,17.10
2023-07-05T12:47:18.800Z,16.90
2023-07-05T12:49:46.335Z,16.80
2023-07-05T12:52:21.891Z,16.70
2023-07-05T12:54:49.384Z,16.60
2023-07-05T12:57:27.355Z,16.60
2023-07-05T13:00:05.643Z,16.60
2023-07-05T13:02:35.234Z,16.70
2023-07-05T13:05:05.034Z,16.80
2023-07-05T13:07:34.161Z,17.00
2023-07-05T13:10:07.501Z,16.70
2023-07-05T13:12:57.711Z,17.30
2023-07-05T13:15:38.911Z,17.50
2023-07-05T13:18:29.295Z,17.60
2023-07-05T13:21:13.966Z,17.70
2023-07-05T13:23:49.606Z,17.80
2023-07-05T13:26:40.469Z,17.80
2023-07-05T13:29:41.904Z,17.90
2023-07-05T13:32:26.036Z,17.90
2023-07-05T13:34:53.531Z,17.90
2023-07-05T13:37:27.511Z,18.00
2023-07-05T13:39:59.611Z,18.00
2023-07-05T13:42:28.170Z,18.10
2023-07-05T13:44:55.545Z,18.20
2023-07-05T13:47:22.977Z,18.30
2023-07-05T13:49:51.355Z,18.40
2023-07-05T13:52:20.548Z,18.30
2023-07-05T13:54:49.397Z,18.10
2023-07-05T13:57:18.901Z,18.20
2023-07-05T13:59:46.695Z,18.20
2023-07-05T14:02:37.629Z,18.20
2023-07-05T14:05:05.721Z,18.10
2023-07-05T14:07:33.149Z,18.10
2023-07-05T14:10:00.841Z,18.10
2023-07-05T14:12:28.176Z,18.30
2023-07-05T14:14:55.668Z,18.40
2023-07-05T14:17:24.500Z,18.60
2023-07-05T14:19:52.107Z,18.70
2023-07-05T14:22:25.012Z,18.90
2023-07-05T14:24:53.670Z,19.00
2023-07-05T14:27:23.467Z,19.00
2023-07-05T14:29:54.529Z,19.00
2023-07-05T14:32:22.676Z,19.00
2023-07-05T14:34:50.076Z,19.30
2023-07-05T14:37:17.528Z,18.70
2023-07-05T14:39:44.879Z,18.60
2023-07-05T14:42:15.493Z,18.50
2023-07-05T14:44:42.851Z,18.50
2023-07-05T14:47:13.003Z,18.70
2023-07-05T14:49:41.536Z,18.60
2023-07-05T14:52:12.490Z,18.70
2023-07-05T14:54:39.970Z,18.90
2023-07-05T14:57:13.386Z,19.00
2023-07-05T14:59:40.729Z,19.00
2023-07-05T15:02:19.796Z,19.00
2023-07-05T15:04:47.205Z,19.10
2023-07-05T15:07:19.962Z,19.10
2023-07-05T15:09:47.579Z,19.10
2023-07-05T15:12:15.806Z,19.20
2023-07-05T15:14:43.471Z,19.20
2023-07-05T15:17:10.852Z,19.30
2023-07-05T15:19:38.327Z,19.40
2023-07-05T15:22:05.896Z,19.40
2023-07-05T15:24:34.358Z,19.40
2023-07-05T15:27:01.712Z,19.40
2023-07-05T15:29:29.045Z,19.40
2023-07-05T15:31:56.435Z,19.40
2023-07-05T15:34:23.742Z,19.40
2023-07-05T15:36:51.183Z,19.30
2023-07-05T15:39:19.862Z,19.40
2023-07-05T15:41:47.254Z,19.50
2023-07-05T15:44:14.588Z,19.60
2023-07-05T15:46:42.124Z,20.10
2023-07-05T15:49:09.524Z,19.60
2023-07-05T15:51:36.879Z,19.70
2023-07-05T15:54:09.721Z,19.70
2023-07-05T15:56:37.088Z,19.80
2023-07-05T15:59:13.607Z,19.80
2023-07-05T16:01:41.603Z,19.80
2023-07-05T16:04:09.300Z,19.80
2023-07-05T16:06:36.727Z,19.80
2023-07-05T16:09:04.133Z,19.70
2023-07-05T16:11:31.505Z,19.70
2023-07-05T16:13:58.995Z,19.70
2023-07-05T16:16:27.432Z,19.60
2023-07-05T16:18:55.085Z,19.60
2023-07-05T16:21:22.558Z,19.60
2023-07-05T16:23:50.147Z,19.70
2023-07-05T16:26:18.005Z,19.70
2023-07-05T16:28:45.394Z,19.80
2023-07-05T16:31:12.753Z,19.80
2023-07-05T16:33:40.329Z,19.90
2023-07-05T16:36:07.723Z,19.90
2023-07-05T16:38:35.109Z,20.00
2023-07-05T16:41:04.443Z,20.00
2023-07-05T16:43:31.871Z,19.90
2023-07-05T16:46:02.438Z,19.90
2023-07-05T16:48:30.515Z,19.90
2023-07-05T16:50:58.124Z,19.90
2023-07-05T16:53:25.904Z,19.90
2023-07-05T16:56:01.647Z,20.00
2023-07-05T16:58:30.563Z,20.00
2023-07-05T17:01:08.649Z,19.80
2023-07-05T17:03:41.874Z,19.70
2023-07-05T17:06:10.749Z,19.60
2023-07-05T17:08:39.631Z,20.30
2023-07-05T17:11:10.572Z,19.50
2023-07-05T17:13:38.079Z,19.40
2023-07-05T17:16:05.684Z,19.40
2023-07-05T17:18:34.529Z,19.30
2023-07-05T17:21:05.425Z,19.40
2023-07-05T17:23:33.458Z,19.50
2023-07-05T17:26:13.111Z,19.40
2023-07-05T17:28:43.109Z,19.80
2023-07-05T17:31:15.626Z,19.70
2023-07-05T17:33:44.888Z,19.70
2023-07-05T17:36:15.087Z,19.70
2023-07-05T17:38:44.237Z,19.80
2023-07-05T17:41:12.352Z,19.80
2023-07-05T17:43:39.957Z,19.80
2023-07-05T17:46:11.672Z,19.80
2023-07-05T17:48:39.931Z,19.80
2023-07-05T17:51:07.582Z,19.90
2023-07-05T17:53:36.140Z,19.90
2023-07-05T17:56:04.155Z,19.80
2023-07-05T17:58:31.480Z,19.80
2023-07-05T18:00:59.143Z,19.80
2023-07-05T18:03:27.247Z,19.90
2023-07-05T18:05:58.032Z,19.90
2023-07-05T18:08:25.716Z,19.90
2023-07-05T18:11:01.264Z,20.00
2023-07-05T18:13:30.442Z,20.00
2023-07-05T18:16:03.499Z,20.10
2023-07-05T18:18:32.723Z,20.10
2023-07-05T18:21:01.532Z,20.10
2023-07-05T18:23:30.310Z,20.10
2023-07-05T18:26:06.272Z,20.10
2023-07-05T18:28:33.698Z,20.00
2023-07-05T18:31:03.275Z,20.00
2023-07-05T18:33:34.481Z,20.00
2023-07-05T18:36:04.471Z,19.90
2023-07-05T18:38:32.694Z,19.90
2023-07-05T18:41:05.450Z,19.90
2023-07-05T18:43:32.779Z,19.90
2023-07-05T18:46:00.936Z,19.80
2023-07-05T18:48:28.974Z,19.80
2023-07-05T18:50:57.963Z,19.80
2023-07-05T18:53:26.940Z,19.70
2023-07-05T18:55:56.404Z,19.70
2023-07-05T18:58:24.930Z,19.60
2023-07-05T19:01:01.382Z,19.60
2023-07-05T19:03:29.935Z,19.70
2023-07-05T19:06:02.789Z,19.70
2023-07-05T19:08:31.713Z,19.70
2023-07-05T19:11:08.000Z,19.70
2023-07-05T19:13:35.921Z,19.60
2023-07-05T19:16:04.286Z,19.60
2023-07-05T19:18:31.938Z,19.60
2023-07-05T19:21:01.987Z,19.50
2023-07-05T19:23:35.085Z,19.40
2023-07-05T19:26:06.455Z,19.40
2023-07-05T19:28:36.925Z,19.30
2023-07-05T19:31:12.842Z,19.10
2023-07-05T19:33:51.048Z,19.10
2023-07-05T19:36:22.383Z,19.00
2023-07-05T19:38:51.625Z,19.00
2023-07-05T19:41:21.153Z,18.90
2023-07-05T19:43:50.751Z,18.80
2023-07-05T19:46:24.799Z,18.80
2023-07-05T19:48:56.615Z,18.70
2023-07-05T19:51:24.548Z,18.70
2023-07-05T19:53:52.072Z,18.70
2023-07-05T19:56:21.154Z,18.70
2023-07-05T19:58:49.677Z,18.70
2023-07-05T20:01:17.782Z,18.60
2023-07-05T20:03:46.634Z,18.60
2023-07-05T20:06:14.177Z,18.50
2023-07-05T20:08:43.664Z,18.40
2023-07-05T20:11:14.818Z,18.00
2023-07-05T20:13:43.818Z,18.30
2023-07-05T20:16:11.575Z,18.40
2023-07-05T20:18:39.177Z,18.30
2023-07-05T20:21:11.489Z,18.10
2023-07-05T20:23:43.701Z,18.00
2023-07-05T20:26:12.606Z,18.00
2023-07-05T20:28:42.724Z,17.90
2023-07-05T20:31:13.299Z,17.80
2023-07-05T20:33:41.086Z,17.80
2023-07-05T20:36:12.466Z,17.70
2023-07-05T20:38:41.452Z,17.70
2023-07-05T20:41:09.414Z,17.60
2023-07-05T20:43:36.815Z,17.60
2023-07-05T20:46:07.152Z,17.50
2023-07-05T20:48:36.808Z,17.50
2023-07-05T20:51:12.023Z,17.40
2023-07-05T20:53:40.602Z,17.40
2023-07-05T20:56:08.402Z,17.40
2023-07-05T20:58:36.817Z,17.30
2023-07-05T21:01:06.238Z,17.30
2023-07-05T21:03:34.176Z,17.30
2023-07-05T21:06:02.517Z,17.20
2023-07-05T21:08:34.321Z,17.20
2023-07-05T21:11:05.138Z,17.20
2023-07-05T21:13:33.750Z,17.10
2023-07-05T21:16:04.810Z,17.10
2023-07-05T21:18:32.955Z,17.00
2023-07-05T21:21:03.086Z,16.90
2023-07-05T21:23:32.771Z,17.00
2023-07-05T21:26:02.438Z,17.00
2023-07-05T21:28:30.796Z,16.90
2023-07-05T21:31:01.324Z,16.90
2023-07-05T21:33:30.055Z,16.80
2023-07-05T21:35:58.693Z,16.80
2023-07-05T21:38:28.479Z,16.80
2023-07-05T21:41:00.590Z,16.70
2023-07-05T21:43:28.630Z,17.50
2023-07-05T21:45:56.524Z,16.70
2023-07-05T21:48:30.090Z,16.70
2023-07-05T21:50:59.462Z,16.70
2023-07-05T21:53:27.963Z,16.60
2023-07-05T21:56:02.848Z,16.60
2023-07-05T21:58:38.405Z,16.60
2023-07-05T22:01:06.106Z,16.90
2023-07-05T22:03:34.049Z,16.60
2023-07-05T22:06:03.724Z,16.60
2023-07-05T22:08:32.149Z,16.60
2023-07-05T22:10:59.911Z,16.50
2023-07-05T22:13:28.499Z,16.50
2023-07-05T22:15:58.312Z,16.50
2023-07-05T22:18:26.339Z,16.50
2023-07-05T22:20:53.717Z,16.60
2023-07-05T22:23:22.651Z,16.40
2023-07-05T22:25:50.164Z,16.50
2023-07-05T22:28:17.780Z,16.40
2023-07-05T22:30:45.212Z,16.30
2023-07-05T22:33:13.452Z,16.20
2023-07-05T22:35:41.046Z,16.20
2023-07-05T22:38:08.566Z,16.30
2023-07-05T22:40:37.958Z,16.30
2023-07-05T22:43:06.772Z,16.10
2023-07-05T22:45:34.633Z,16.10
2023-07-05T22:48:02.149Z,16.00
2023-07-05T22:50:30.236Z,16.10
2023-07-05T22:52:59.030Z,16.00
2023-07-05T22:55:26.777Z,16.00
2023-07-05T22:57:55.620Z,16.00
2023-07-05T23:00:23.793Z,16.00
2023-07-05T23:02:53.137Z,16.00
2023-07-05T23:05:22.961Z,16.00
2023-07-05T23:07:50.804Z,15.80
2023-07-05T23:10:18.246Z,15.90
2023-07-05T23:12:47.340Z,15.80
2023-07-05T23:15:15.002Z,15.80
2023-07-05T23:17:43.460Z,15.80
2023-07-05T23:20:13.345Z,15.60
2023-07-05T23:22:43.972Z,15.70
2023-07-05T23:25:11.766Z,15.70
2023-07-05T23:27:42.542Z,15.60
2023-07-05T23:30:11.739Z,16.40
2023-07-05T23:32:41.104Z,15.70
2023-07-05T23:35:13.312Z,15.60
2023-07-05T23:37:40.725Z,15.60
2023-07-05T23:40:12.602Z,15.60
2023-07-05T23:42:42.389Z,15.60
2023-07-05T23:45:12.668Z,15.50
2023-07-05T23:47:41.252Z,15.50
2023-07-05T23:50:09.590Z,15.50
2023-07-05T23:52:37.153Z,15.50
2023-07-05T23:55:05.345Z,14.60
2023-07-05T23:57:32.794Z,15.40
